sensor_id;sensor_type;location;lat;lon;timestamp;pressure;altitude;pressure_sealevel;temperature;humidity
14232;BME280;7200;52.194;9.900;2023-10-31T00:01:20;98295.59;;;16.64;100.00
14232;BME280;7200;52.194;9.900;2023-10-31T00:03:45;98286.25;;;16.50;100.00
14232;BME280;7200;52.194;9.900;2023-10-31T00:06:11;98281.22;;;16.47;100.00
14232;BME280;7200;52.194;9.900;2023-10-31T00:08:36;98290.78;;;16.40;100.00
14232;BME280;7200;52.194;9.900;2023-10-31T00:11:01;98290.50;;;16.43;100.00
14232;BME280;7200;52.194;9.900;2023-10-31T00:13:27;98282.75;;;16.49;100.00
14232;BME280;7200;52.194;9.900;2023-10-31T00:15:52;98285.19;;;16.33;100.00
14232;BME280;7200;52.194;9.900;2023-10-31T00:18:18;98284.25;;;16.24;100.00
14232;BME280;7200;52.194;9.900;2023-10-31T00:20:43;98277.94;;;16.25;100.00
14232;BME280;7200;52.194;9.900;2023-10-31T00:23:08;98282.88;;;16.20;100.00
14232;BME280;7200;52.194;9.900;2023-10-31T00:25:34;98281.41;;;16.35;100.00
14232;BME280;7200;52.194;9.900;2023-10-31T00:27:59;98278.06;;;16.33;100.00
14232;BME280;7200;52.194;9.900;2023-10-31T00:30:24;98280.22;;;16.20;100.00
14232;BME280;7200;52.194;9.900;2023-10-31T00:32:50;98281.28;;;16.27;100.00
14232;BME280;7200;52.194;9.900;2023-10-31T00:35:15;98275.06;;;15.99;100.00
14232;BME280;7200;52.194;9.900;2023-10-31T00:37:41;98280.44;;;16.27;100.00
14232;BME280;7200;52.194;9.900;2023-10-31T00:40:07;98285.19;;;16.33;100.00
14232;BME280;7200;52.194;9.900;2023-10-31T00:42:32;98287.16;;;16.41;100.00
14232;BME280;7200;52.194;9.900;2023-10-31T00:44:59;98274.13;;;16.38;100.00
14232;BME280;7200;52.194;9.900;2023-10-31T00:47:24;98278.44;;;16.48;100.00
14232;BME280;7200;52.194;9.900;2023-10-31T00:49:49;98276.84;;;16.55;100.00
14232;BME280;7200;52.194;9.900;2023-10-31T00:52:15;98280.53;;;16.45;100.00
14232;BME280;7200;52.194;9.900;2023-10-31T00:54:40;98286.78;;;16.63;100.00
14232;BME280;7200;52.194;9.900;2023-10-31T00:57:05;98293.41;;;16.49;100.00
14232;BME280;7200;52.194;9.900;2023-10-31T00:59:30;98289.44;;;16.53;100.00
14232;BME280;7200;52.194;9.900;2023-10-31T01:01:56;98284.63;;;16.39;100.00
14232;BME280;7200;52.194;9.900;2023-10-31T01:04:21;98280.91;;;16.50;100.00
14232;BME280;7200;52.194;9.900;2023-10-31T01:06:46;98271.19;;;16.31;100.00
14232;BME280;7200;52.194;9.900;2023-10-31T01:09:12;98275.94;;;16.37;100.00
14232;BME280;7200;52.194;9.900;2023-10-31T01:11:38;98266.72;;;16.31;100.00
14232;BME280;7200;52.194;9.900;2023-10-31T01:14:03;98262.69;;;16.18;100.00
14232;BME280;7200;52.194;9.900;2023-10-31T01:16:29;98256.94;;;16.22;100.00
14232;BME280;7200;52.194;9.900;2023-10-31T01:18:54;98266.88;;;16.30;100.00
14232;BME280;7200;52.194;9.900;2023-10-31T01:21:19;98256.47;;;16.37;100.00
14232;BME280;7200;52.194;9.900;2023-10-31T01:23:45;98254.66;;;16.37;100.00
14232;BME280;7200;52.194;9.900;2023-10-31T01:26:10;98252.81;;;16.38;100.00
14232;BME280;7200;52.194;9.900;2023-10-31T01:28:35;98250.16;;;16.38;100.00
14232;BME280;7200;52.194;9.900;2023-10-31T01:31:00;98256.19;;;16.40;100.00
14232;BME280;7200;52.194;9.900;2023-10-31T01:33:26;98256.09;;;16.59;100.00
14232;BME280;7200;52.194;9.900;2023-10-31T01:35:51;98257.84;;;16.68;100.00
14232;BME280;7200;52.194;9.900;2023-10-31T01:38:16;98248.34;;;16.66;100.00
14232;BME280;7200;52.194;9.900;2023-10-31T01:40:42;98246.72;;;16.55;100.00
14232;BME280;7200;52.194;9.900;2023-10-31T01:43:07;98243.63;;;16.60;100.00
14232;BME280;7200;52.194;9.900;2023-10-31T01:45:32;98240.91;;;16.69;100.00
14232;BME280;7200;52.194;9.900;2023-10-31T01:47:58;98240.31;;;16.76;100.00
14232;BME280;7200;52.194;9.900;2023-10-31T01:50:24;98233.63;;;16.71;100.00
14232;BME280;7200;52.194;9.900;2023-10-31T01:52:49;98235.53;;;16.79;100.00
14232;BME280;7200;52.194;9.900;2023-10-31T01:55:15;98221.53;;;16.49;100.00
14232;BME280;7200;52.194;9.900;2023-10-31T01:57:40;98234.97;;;16.76;100.00
14232;BME280;7200;52.194;9.900;2023-10-31T02:00:06;98227.75;;;16.68;100.00
14232;BME280;7200;52.194;9.900;2023-10-31T02:02:33;98222.28;;;16.69;100.00
14232;BME280;7200;52.194;9.900;2023-10-31T02:04:59;98218.94;;;16.67;100.00
14232;BME280;7200;52.194;9.900;2023-10-31T02:07:25;98221.78;;;16.84;100.00
14232;BME280;7200;52.194;9.900;2023-10-31T02:09:50;98212.47;;;16.70;100.00
14232;BME280;7200;52.194;9.900;2023-10-31T02:12:36;98214.34;;;16.87;100.00
14232;BME280;7200;52.194;9.900;2023-10-31T02:15:02;98206.09;;;16.81;100.00
14232;BME280;7200;52.194;9.900;2023-10-31T02:17:28;98207.72;;;16.64;100.00
14232;BME280;7200;52.194;9.900;2023-10-31T02:19:54;98202.81;;;16.41;100.00
14232;BME280;7200;52.194;9.900;2023-10-31T02:22:19;98210.31;;;16.28;100.00
14232;BME280;7200;52.194;9.900;2023-10-31T02:24:45;98199.88;;;16.34;100.00
14232;BME280;7200;52.194;9.900;2023-10-31T02:27:10;98199.69;;;16.46;100.00
14232;BME280;7200;52.194;9.900;2023-10-31T02:29:35;98196.53;;;16.60;100.00
14232;BME280;7200;52.194;9.900;2023-10-31T02:32:01;98191.97;;;16.52;100.00
14232;BME280;7200;52.194;9.900;2023-10-31T02:34:26;98200.91;;;16.79;100.00
14232;BME280;7200;52.194;9.900;2023-10-31T02:36:51;98197.09;;;16.82;100.00
14232;BME280;7200;52.194;9.900;2023-10-31T02:39:17;98200.66;;;17.00;100.00
14232;BME280;7200;52.194;9.900;2023-10-31T02:41:42;98183.31;;;16.96;100.00
14232;BME280;7200;52.194;9.900;2023-10-31T02:44:08;98190.59;;;17.12;100.00
14232;BME280;7200;52.194;9.900;2023-10-31T02:46:37;98187.47;;;16.99;100.00
14232;BME280;7200;52.194;9.900;2023-10-31T02:49:03;98180.78;;;17.12;100.00
14232;BME280;7200;52.194;9.900;2023-10-31T02:51:28;98182.06;;;16.90;100.00
14232;BME280;7200;52.194;9.900;2023-10-31T02:53:53;98181.59;;;16.95;100.00
14232;BME280;7200;52.194;9.900;2023-10-31T02:56:19;98188.19;;;16.73;100.00
14232;BME280;7200;52.194;9.900;2023-10-31T02:58:44;98189.59;;;16.95;100.00
14232;BME280;7200;52.194;9.900;2023-10-31T03:01:10;98181.31;;;16.52;100.00
14232;BME280;7200;52.194;9.900;2023-10-31T03:03:36;98186.19;;;16.57;100.00
14232;BME280;7200;52.194;9.900;2023-10-31T03:06:01;98183.19;;;16.42;100.00
14232;BME280;7200;52.194;9.900;2023-10-31T03:08:26;98183.28;;;16.50;100.00
14232;BME280;7200;52.194;9.900;2023-10-31T03:10:53;98189.63;;;16.67;100.00
14232;BME280;7200;52.194;9.900;2023-10-31T03:13:18;98191.81;;;16.54;100.00
14232;BME280;7200;52.194;9.900;2023-10-31T03:15:44;98192.97;;;16.24;100.00
14232;BME280;7200;52.194;9.900;2023-10-31T03:18:09;98189.19;;;16.17;100.00
14232;BME280;7200;52.194;9.900;2023-10-31T03:20:34;98187.22;;;16.19;100.00
14232;BME280;7200;52.194;9.900;2023-10-31T03:22:59;98210.03;;;15.74;100.00
14232;BME280;7200;52.194;9.900;2023-10-31T03:25:25;98194.91;;;15.65;100.00
14232;BME280;7200;52.194;9.900;2023-10-31T03:27:50;98203.75;;;15.46;100.00
14232;BME280;7200;52.194;9.900;2023-10-31T03:30:16;98203.91;;;15.54;100.00
14232;BME280;7200;52.194;9.900;2023-10-31T03:32:41;98211.03;;;15.44;100.00
14232;BME280;7200;52.194;9.900;2023-10-31T03:35:07;98213.56;;;15.45;100.00
14232;BME280;7200;52.194;9.900;2023-10-31T03:37:32;98214.41;;;15.16;100.00
14232;BME280;7200;52.194;9.900;2023-10-31T03:39:57;98227.28;;;15.11;100.00
14232;BME280;7200;52.194;9.900;2023-10-31T03:42:23;98237.13;;;14.70;100.00
14232;BME280;7200;52.194;9.900;2023-10-31T03:44:48;98244.47;;;15.27;100.00
14232;BME280;7200;52.194;9.900;2023-10-31T03:47:13;98247.81;;;15.19;100.00
14232;BME280;7200;52.194;9.900;2023-10-31T03:49:41;98248.22;;;15.05;100.00
14232;BME280;7200;52.194;9.900;2023-10-31T03:52:06;98249.16;;;14.84;100.00
14232;BME280;7200;52.194;9.900;2023-10-31T03:54:32;98250.03;;;14.85;100.00
14232;BME280;7200;52.194;9.900;2023-10-31T03:56:57;98254.09;;;15.08;100.00
14232;BME280;7200;52.194;9.900;2023-10-31T03:59:23;98249.47;;;15.01;100.00
14232;BME280;7200;52.194;9.900;2023-10-31T04:01:48;98239.09;;;14.78;100.00
14232;BME280;7200;52.194;9.900;2023-10-31T04:04:13;98250.41;;;14.90;100.00
14232;BME280;7200;52.194;9.900;2023-10-31T04:06:39;98246.38;;;14.86;100.00
14232;BME280;7200;52.194;9.900;2023-10-31T04:09:06;98236.31;;;14.79;100.00
14232;BME280;7200;52.194;9.900;2023-10-31T04:11:31;98256.50;;;14.61;100.00
14232;BME280;7200;52.194;9.900;2023-10-31T04:13:57;98260.78;;;14.52;100.00
14232;BME280;7200;52.194;9.900;2023-10-31T04:16:22;98260.31;;;14.68;100.00
14232;BME280;7200;52.194;9.900;2023-10-31T04:18:48;98269.13;;;14.48;100.00
14232;BME280;7200;52.194;9.900;2023-10-31T04:21:14;98278.19;;;14.66;100.00
14232;BME280;7200;52.194;9.900;2023-10-31T04:23:39;98290.94;;;14.82;100.00
14232;BME280;7200;52.194;9.900;2023-10-31T04:26:05;98293.16;;;14.77;100.00
14232;BME280;7200;52.194;9.900;2023-10-31T04:28:30;98301.88;;;14.98;100.00
14232;BME280;7200;52.194;9.900;2023-10-31T04:30:56;98289.16;;;14.92;100.00
14232;BME280;7200;52.194;9.900;2023-10-31T04:33:21;98301.41;;;14.43;100.00
14232;BME280;7200;52.194;9.900;2023-10-31T04:35:46;98321.66;;;14.54;100.00
14232;BME280;7200;52.194;9.900;2023-10-31T04:38:12;98311.84;;;14.45;100.00
14232;BME280;7200;52.194;9.900;2023-10-31T04:40:37;98331.53;;;14.63;100.00
14232;BME280;7200;52.194;9.900;2023-10-31T04:43:02;98331.78;;;14.39;100.00
14232;BME280;7200;52.194;9.900;2023-10-31T04:45:28;98337.53;;;14.44;100.00
14232;BME280;7200;52.194;9.900;2023-10-31T04:47:53;98330.75;;;14.51;100.00
14232;BME280;7200;52.194;9.900;2023-10-31T04:50:18;98330.84;;;14.19;100.00
14232;BME280;7200;52.194;9.900;2023-10-31T04:52:44;98348.22;;;14.33;100.00
14232;BME280;7200;52.194;9.900;2023-10-31T04:55:09;98340.06;;;14.15;100.00
14232;BME280;7200;52.194;9.900;2023-10-31T04:57:35;98341.75;;;14.26;100.00
14232;BME280;7200;52.194;9.900;2023-10-31T05:00:00;98330.56;;;14.22;100.00
14232;BME280;7200;52.194;9.900;2023-10-31T05:02:25;98334.88;;;14.65;100.00
14232;BME280;7200;52.194;9.900;2023-10-31T05:04:51;98334.75;;;14.46;100.00
14232;BME280;7200;52.194;9.900;2023-10-31T05:07:17;98328.19;;;14.40;100.00
14232;BME280;7200;52.194;9.900;2023-10-31T05:09:42;98346.53;;;14.53;100.00
14232;BME280;7200;52.194;9.900;2023-10-31T05:12:08;98332.06;;;14.57;100.00
14232;BME280;7200;52.194;9.900;2023-10-31T05:14:33;98332.56;;;14.51;100.00
14232;BME280;7200;52.194;9.900;2023-10-31T05:16:58;98337.06;;;14.08;100.00
14232;BME280;7200;52.194;9.900;2023-10-31T05:19:24;98337.97;;;13.97;100.00
14232;BME280;7200;52.194;9.900;2023-10-31T05:21:49;98336.53;;;13.93;100.00
14232;BME280;7200;52.194;9.900;2023-10-31T05:24:14;98336.09;;;14.09;100.00
14232;BME280;7200;52.194;9.900;2023-10-31T05:26:40;98324.22;;;13.82;100.00
14232;BME280;7200;52.194;9.900;2023-10-31T05:29:07;98333.03;;;13.72;100.00
14232;BME280;7200;52.194;9.900;2023-10-31T05:31:32;98364.41;;;13.88;100.00
14232;BME280;7200;52.194;9.900;2023-10-31T05:33:58;98356.91;;;14.14;100.00
14232;BME280;7200;52.194;9.900;2023-10-31T05:36:24;98361.75;;;14.09;100.00
14232;BME280;7200;52.194;9.900;2023-10-31T05:38:50;98373.34;;;14.29;100.00
14232;BME280;7200;52.194;9.900;2023-10-31T05:41:15;98361.69;;;14.20;100.00
14232;BME280;7200;52.194;9.900;2023-10-31T05:43:41;98371.94;;;14.25;100.00
14232;BME280;7200;52.194;9.900;2023-10-31T05:46:07;98382.38;;;14.05;100.00
14232;BME280;7200;52.194;9.900;2023-10-31T05:48:37;98380.06;;;14.12;100.00
14232;BME280;7200;52.194;9.900;2023-10-31T05:51:03;98373.59;;;14.26;100.00
14232;BME280;7200;52.194;9.900;2023-10-31T05:53:30;98386.09;;;14.14;100.00
14232;BME280;7200;52.194;9.900;2023-10-31T05:55:55;98398.06;;;13.76;100.00
14232;BME280;7200;52.194;9.900;2023-10-31T05:58:21;98399.63;;;13.78;100.00
14232;BME280;7200;52.194;9.900;2023-10-31T06:00:46;98408.44;;;13.79;100.00
14232;BME280;7200;52.194;9.900;2023-10-31T06:03:12;98407.25;;;13.72;100.00
14232;BME280;7200;52.194;9.900;2023-10-31T06:05:37;98417.13;;;13.70;100.00
14232;BME280;7200;52.194;9.900;2023-10-31T06:08:03;98412.47;;;13.62;100.00
14232;BME280;7200;52.194;9.900;2023-10-31T06:10:29;98430.38;;;13.70;100.00
14232;BME280;7200;52.194;9.900;2023-10-31T06:12:55;98425.31;;;13.67;100.00
14232;BME280;7200;52.194;9.900;2023-10-31T06:15:20;98411.09;;;13.79;100.00
14232;BME280;7200;52.194;9.900;2023-10-31T06:17:46;98422.06;;;13.63;100.00
14232;BME280;7200;52.194;9.900;2023-10-31T06:20:11;98426.72;;;13.82;100.00
14232;BME280;7200;52.194;9.900;2023-10-31T06:22:36;98426.91;;;13.58;100.00
14232;BME280;7200;52.194;9.900;2023-10-31T06:25:02;98435.56;;;13.71;100.00
14232;BME280;7200;52.194;9.900;2023-10-31T06:27:27;98428.00;;;13.55;100.00
14232;BME280;7200;52.194;9.900;2023-10-31T06:29:52;98421.06;;;13.43;100.00
14232;BME280;7200;52.194;9.900;2023-10-31T06:32:18;98430.84;;;13.63;100.00
14232;BME280;7200;52.194;9.900;2023-10-31T06:34:43;98445.25;;;13.38;100.00
14232;BME280;7200;52.194;9.900;2023-10-31T06:37:08;98453.31;;;13.37;100.00
14232;BME280;7200;52.194;9.900;2023-10-31T06:39:33;98449.56;;;13.51;100.00
14232;BME280;7200;52.194;9.900;2023-10-31T06:41:59;98463.25;;;13.67;100.00
14232;BME280;7200;52.194;9.900;2023-10-31T06:44:25;98461.19;;;13.71;100.00
14232;BME280;7200;52.194;9.900;2023-10-31T06:46:51;98459.63;;;13.79;100.00
14232;BME280;7200;52.194;9.900;2023-10-31T06:49:16;98468.53;;;13.78;100.00
14232;BME280;7200;52.194;9.900;2023-10-31T06:51:41;98479.63;;;13.72;100.00
14232;BME280;7200;52.194;9.900;2023-10-31T06:54:07;98473.03;;;13.55;100.00
14232;BME280;7200;52.194;9.900;2023-10-31T06:56:32;98472.50;;;13.73;100.00
14232;BME280;7200;52.194;9.900;2023-10-31T06:58:58;98485.13;;;13.92;100.00
14232;BME280;7200;52.194;9.900;2023-10-31T07:01:23;98487.41;;;13.96;100.00
14232;BME280;7200;52.194;9.900;2023-10-31T07:03:48;98486.22;;;13.89;100.00
14232;BME280;7200;52.194;9.900;2023-10-31T07:06:14;98486.56;;;13.96;100.00
14232;BME280;7200;52.194;9.900;2023-10-31T07:08:39;98493.53;;;13.97;100.00
14232;BME280;7200;52.194;9.900;2023-10-31T07:11:04;98496.59;;;13.92;100.00
14232;BME280;7200;52.194;9.900;2023-10-31T07:13:30;98502.97;;;14.22;100.00
14232;BME280;7200;52.194;9.900;2023-10-31T07:15:55;98485.38;;;13.89;100.00
14232;BME280;7200;52.194;9.900;2023-10-31T07:18:20;98488.88;;;14.21;100.00
14232;BME280;7200;52.194;9.900;2023-10-31T07:20:46;98496.81;;;14.21;100.00
14232;BME280;7200;52.194;9.900;2023-10-31T07:23:11;98489.41;;;14.36;100.00
14232;BME280;7200;52.194;9.900;2023-10-31T07:25:36;98500.97;;;14.47;100.00
14232;BME280;7200;52.194;9.900;2023-10-31T07:28:02;98505.56;;;14.33;100.00
14232;BME280;7200;52.194;9.900;2023-10-31T07:30:27;98491.97;;;14.06;100.00
14232;BME280;7200;52.194;9.900;2023-10-31T07:32:53;98513.88;;;14.08;100.00
14232;BME280;7200;52.194;9.900;2023-10-31T07:35:18;98494.19;;;14.21;100.00
14232;BME280;7200;52.194;9.900;2023-10-31T07:37:44;98492.91;;;14.05;100.00
14232;BME280;7200;52.194;9.900;2023-10-31T07:40:11;98505.94;;;14.08;100.00
14232;BME280;7200;52.194;9.900;2023-10-31T07:42:36;98505.84;;;14.30;100.00
14232;BME280;7200;52.194;9.900;2023-10-31T07:45:01;98510.38;;;14.18;100.00
14232;BME280;7200;52.194;9.900;2023-10-31T07:47:27;98504.38;;;14.37;100.00
14232;BME280;7200;52.194;9.900;2023-10-31T07:49:52;98495.91;;;14.44;100.00
14232;BME280;7200;52.194;9.900;2023-10-31T07:52:22;98507.03;;;14.37;100.00
14232;BME280;7200;52.194;9.900;2023-10-31T07:57:38;98495.75;;;14.24;100.00
14232;BME280;7200;52.194;9.900;2023-10-31T08:00:03;98499.44;;;14.33;100.00
14232;BME280;7200;52.194;9.900;2023-10-31T08:02:31;98512.81;;;14.31;100.00
14232;BME280;7200;52.194;9.900;2023-10-31T08:04:57;98510.56;;;14.59;100.00
14232;BME280;7200;52.194;9.900;2023-10-31T08:07:24;98514.41;;;14.55;100.00
14232;BME280;7200;52.194;9.900;2023-10-31T08:09:58;98501.06;;;14.24;100.00
14232;BME280;7200;52.194;9.900;2023-10-31T08:12:26;98513.72;;;14.53;100.00
14232;BME280;7200;52.194;9.900;2023-10-31T08:14:51;98513.22;;;14.27;100.00
14232;BME280;7200;52.194;9.900;2023-10-31T08:17:17;98515.47;;;14.31;100.00
14232;BME280;7200;52.194;9.900;2023-10-31T08:19:42;98528.22;;;14.05;100.00
14232;BME280;7200;52.194;9.900;2023-10-31T08:22:07;98537.38;;;14.12;100.00
14232;BME280;7200;52.194;9.900;2023-10-31T08:24:33;98542.03;;;14.20;100.00
14232;BME280;7200;52.194;9.900;2023-10-31T08:27:01;98569.75;;;14.27;100.00
14232;BME280;7200;52.194;9.900;2023-10-31T08:29:27;98581.25;;;14.05;100.00
14232;BME280;7200;52.194;9.900;2023-10-31T08:31:52;98580.34;;;13.61;100.00
14232;BME280;7200;52.194;9.900;2023-10-31T08:34:17;98574.09;;;13.51;100.00
14232;BME280;7200;52.194;9.900;2023-10-31T08:36:43;98589.22;;;13.26;100.00
14232;BME280;7200;52.194;9.900;2023-10-31T08:39:08;98589.72;;;13.42;100.00
14232;BME280;7200;52.194;9.900;2023-10-31T08:41:33;98592.84;;;13.36;100.00
14232;BME280;7200;52.194;9.900;2023-10-31T08:43:59;98584.06;;;13.36;100.00
14232;BME280;7200;52.194;9.900;2023-10-31T08:46:26;98599.00;;;13.48;100.00
14232;BME280;7200;52.194;9.900;2023-10-31T08:48:51;98611.41;;;13.36;100.00
14232;BME280;7200;52.194;9.900;2023-10-31T08:51:17;98617.66;;;13.47;100.00
14232;BME280;7200;52.194;9.900;2023-10-31T08:53:42;98616.09;;;13.33;100.00
14232;BME280;7200;52.194;9.900;2023-10-31T08:56:08;98598.09;;;13.14;100.00
14232;BME280;7200;52.194;9.900;2023-10-31T08:58:36;98609.91;;;13.21;100.00
14232;BME280;7200;52.194;9.900;2023-10-31T09:01:09;98611.41;;;13.36;100.00
14232;BME280;7200;52.194;9.900;2023-10-31T09:03:34;98614.53;;;13.30;100.00
14232;BME280;7200;52.194;9.900;2023-10-31T09:06:00;98615.50;;;13.52;100.00
14232;BME280;7200;52.194;9.900;2023-10-31T09:08:25;98620.09;;;13.61;100.00
14232;BME280;7200;52.194;9.900;2023-10-31T09:10:50;98619.06;;;13.28;100.00
14232;BME280;7200;52.194;9.900;2023-10-31T09:13:16;98623.50;;;13.28;100.00
14232;BME280;7200;52.194;9.900;2023-10-31T09:15:41;98641.50;;;13.58;100.00
14232;BME280;7200;52.194;9.900;2023-10-31T09:18:06;98644.31;;;13.56;100.00
14232;BME280;7200;52.194;9.900;2023-10-31T09:20:32;98649.97;;;13.74;100.00
14232;BME280;7200;52.194;9.900;2023-10-31T09:22:57;98650.94;;;13.62;100.00
14232;BME280;7200;52.194;9.900;2023-10-31T09:25:22;98656.22;;;13.62;100.00
14232;BME280;7200;52.194;9.900;2023-10-31T09:27:48;98663.94;;;13.65;100.00
14232;BME280;7200;52.194;9.900;2023-10-31T09:30:14;98665.16;;;13.83;100.00
14232;BME280;7200;52.194;9.900;2023-10-31T09:32:39;98683.38;;;13.99;100.00
14232;BME280;7200;52.194;9.900;2023-10-31T09:35:04;98669.84;;;14.02;100.00
14232;BME280;7200;52.194;9.900;2023-10-31T09:37:31;98676.47;;;14.19;100.00
14232;BME280;7200;52.194;9.900;2023-10-31T09:39:56;98668.16;;;14.35;100.00
14232;BME280;7200;52.194;9.900;2023-10-31T09:42:21;98669.34;;;14.20;100.00
14232;BME280;7200;52.194;9.900;2023-10-31T09:44:47;98666.31;;;14.47;100.00
14232;BME280;7200;52.194;9.900;2023-10-31T09:47:12;98675.78;;;14.72;100.00
14232;BME280;7200;52.194;9.900;2023-10-31T09:49:37;98679.56;;;14.58;100.00
14232;BME280;7200;52.194;9.900;2023-10-31T09:52:03;98675.88;;;14.82;100.00
14232;BME280;7200;52.194;9.900;2023-10-31T09:54:29;98682.13;;;14.37;100.00
14232;BME280;7200;52.194;9.900;2023-10-31T09:56:55;98684.06;;;14.35;100.00
14232;BME280;7200;52.194;9.900;2023-10-31T09:59:20;98687.75;;;14.44;100.00
14232;BME280;7200;52.194;9.900;2023-10-31T10:01:45;98692.25;;;14.32;100.00
14232;BME280;7200;52.194;9.900;2023-10-31T10:04:11;98702.00;;;14.66;100.00
14232;BME280;7200;52.194;9.900;2023-10-31T10:06:50;98697.16;;;14.59;100.00
14232;BME280;7200;52.194;9.900;2023-10-31T10:09:15;98703.28;;;14.83;100.00
14232;BME280;7200;52.194;9.900;2023-10-31T10:11:41;98709.38;;;14.62;100.00
14232;BME280;7200;52.194;9.900;2023-10-31T10:14:06;98711.97;;;14.85;100.00
14232;BME280;7200;52.194;9.900;2023-10-31T10:16:34;98713.25;;;14.58;100.00
14232;BME280;7200;52.194;9.900;2023-10-31T10:19:26;98729.16;;;14.69;100.00
14232;BME280;7200;52.194;9.900;2023-10-31T10:21:53;98738.66;;;14.72;100.00
14232;BME280;7200;52.194;9.900;2023-10-31T10:24:20;98744.31;;;14.67;100.00
14232;BME280;7200;52.194;9.900;2023-10-31T10:26:46;98748.91;;;14.43;100.00
14232;BME280;7200;52.194;9.900;2023-10-31T10:29:11;98748.06;;;14.42;100.00
14232;BME280;7200;52.194;9.900;2023-10-31T10:31:37;98763.50;;;14.37;100.00
14232;BME280;7200;52.194;9.900;2023-10-31T10:34:02;98761.09;;;14.11;100.00
14232;BME280;7200;52.194;9.900;2023-10-31T10:36:27;98773.16;;;14.15;100.00
14232;BME280;7200;52.194;9.900;2023-10-31T10:38:57;98776.91;;;14.13;100.00
14232;BME280;7200;52.194;9.900;2023-10-31T10:41:25;98779.31;;;14.27;100.00
14232;BME280;7200;52.194;9.900;2023-10-31T10:43:57;98785.09;;;14.10;100.00
14232;BME280;7200;52.194;9.900;2023-10-31T10:46:29;98787.97;;;14.07;100.00
14232;BME280;7200;52.194;9.900;2023-10-31T10:48:58;98792.56;;;14.27;100.00
14232;BME280;7200;52.194;9.900;2023-10-31T10:51:29;98789.19;;;14.48;100.00
14232;BME280;7200;52.194;9.900;2023-10-31T10:54:14;98782.28;;;15.02;100.00
14232;BME280;7200;52.194;9.900;2023-10-31T10:56:53;98777.97;;;14.89;100.00
14232;BME280;7200;52.194;9.900;2023-10-31T10:59:30;98770.81;;;15.01;100.00
14232;BME280;7200;52.194;9.900;2023-10-31T11:02:02;98766.44;;;15.11;100.00
14232;BME280;7200;52.194;9.900;2023-10-31T11:04:30;98764.63;;;15.12;100.00
14232;BME280;7200;52.194;9.900;2023-10-31T11:06:56;98763.09;;;14.98;100.00
14232;BME280;7200;52.194;9.900;2023-10-31T11:09:23;98771.19;;;14.96;100.00
14232;BME280;7200;52.194;9.900;2023-10-31T11:11:50;98773.34;;;15.03;100.00
14232;BME280;7200;52.194;9.900;2023-10-31T11:14:16;98779.84;;;15.10;100.00
14232;BME280;7200;52.194;9.900;2023-10-31T11:16:47;98767.75;;;14.62;100.00
14232;BME280;7200;52.194;9.900;2023-10-31T11:19:15;98779.31;;;14.72;100.00
14232;BME280;7200;52.194;9.900;2023-10-31T11:21:58;98785.69;;;14.92;100.00
14232;BME280;7200;52.194;9.900;2023-10-31T11:24:36;98784.75;;;14.59;100.00
14232;BME280;7200;52.194;9.900;2023-10-31T11:27:03;98790.91;;;14.49;100.00
14232;BME280;7200;52.194;9.900;2023-10-31T11:29:31;98799.69;;;14.83;100.00
14232;BME280;7200;52.194;9.900;2023-10-31T11:31:56;98784.63;;;14.38;100.00
14232;BME280;7200;52.194;9.900;2023-10-31T11:34:22;98781.25;;;14.48;100.00
14232;BME280;7200;52.194;9.900;2023-10-31T11:36:48;98788.59;;;14.78;100.00
14232;BME280;7200;52.194;9.900;2023-10-31T11:39:18;98804.50;;;15.01;100.00
14232;BME280;7200;52.194;9.900;2023-10-31T11:41:49;98791.03;;;15.25;100.00
14232;BME280;7200;52.194;9.900;2023-10-31T11:44:16;98799.69;;;14.83;100.00
14232;BME280;7200;52.194;9.900;2023-10-31T11:46:41;98801.31;;;15.07;100.00
14232;BME280;7200;52.194;9.900;2023-10-31T11:49:07;98808.47;;;15.06;100.00
14232;BME280;7200;52.194;9.900;2023-10-31T11:51:33;98811.53;;;14.90;100.00
14232;BME280;7200;52.194;9.900;2023-10-31T11:54:05;98805.47;;;14.99;100.00
14232;BME280;7200;52.194;9.900;2023-10-31T11:56:33;98818.38;;;14.93;100.00
14232;BME280;7200;52.194;9.900;2023-10-31T11:59:04;98798.50;;;14.65;100.00
14232;BME280;7200;52.194;9.900;2023-10-31T12:01:31;98805.25;;;14.69;100.00
14232;BME280;7200;52.194;9.900;2023-10-31T12:03:57;98819.34;;;15.03;100.00
14232;BME280;7200;52.194;9.900;2023-10-31T12:06:22;98825.22;;;15.18;100.00
14232;BME280;7200;52.194;9.900;2023-10-31T12:08:48;98840.94;;;15.53;100.00
14232;BME280;7200;52.194;9.900;2023-10-31T12:11:16;98839.28;;;15.41;100.00
14232;BME280;7200;52.194;9.900;2023-10-31T12:13:54;98834.41;;;15.14;100.00
14232;BME280;7200;52.194;9.900;2023-10-31T12:16:23;98847.44;;;15.17;100.00
14232;BME280;7200;52.194;9.900;2023-10-31T12:19:03;98852.69;;;14.96;100.00
14232;BME280;7200;52.194;9.900;2023-10-31T12:21:39;98851.22;;;15.03;100.00
14232;BME280;7200;52.194;9.900;2023-10-31T12:24:07;98849.28;;;15.05;100.00
14232;BME280;7200;52.194;9.900;2023-10-31T12:26:36;98848.53;;;15.26;100.00
14232;BME280;7200;52.194;9.900;2023-10-31T12:29:18;98848.41;;;15.16;100.00
14232;BME280;7200;52.194;9.900;2023-10-31T12:31:52;98865.28;;;15.37;100.00
14232;BME280;7200;52.194;9.900;2023-10-31T12:34:20;98852.88;;;15.15;100.00
14232;BME280;7200;52.194;9.900;2023-10-31T12:36:47;98857.72;;;14.99;100.00
14232;BME280;7200;52.194;9.900;2023-10-31T12:39:13;98857.97;;;15.07;100.00
14232;BME280;7200;52.194;9.900;2023-10-31T12:41:40;98869.19;;;15.11;100.00
14232;BME280;7200;52.194;9.900;2023-10-31T12:44:06;98857.25;;;15.05;100.00
14232;BME280;7200;52.194;9.900;2023-10-31T12:46:39;98862.19;;;15.10;100.00
14232;BME280;7200;52.194;9.900;2023-10-31T12:49:11;98859.75;;;15.18;100.00
14232;BME280;7200;52.194;9.900;2023-10-31T12:51:36;98872.53;;;15.35;100.00
14232;BME280;7200;52.194;9.900;2023-10-31T12:54:03;98869.28;;;15.64;100.00
14232;BME280;7200;52.194;9.900;2023-10-31T12:56:40;98873.94;;;15.51;100.00
14232;BME280;7200;52.194;9.900;2023-10-31T12:59:07;98856.81;;;15.76;100.00